Minneapolis, Minnesota
Traffic Map
Current Weather Conditions
Minneapolis, Minnesota
Clear
Clear
28°
Feels Like: 17°
Wind Chill: 17° Ceiling: Unl
Heat Index: 28° Visibility: 10mi
Dew Point: 16° Wind: 13mph
Humidity: 61% Direction: 10° (N)
Pressure: 30.54in Gusts: 21mph
Raw Report DataKMSP 311353Z 01011G18KT 10SM CLR M02/M09 A3054 RMK AO2 SLP352 T10221089
Traffic Incident Summary
Active as of:
Severity:
Category:
InformationThere was an issue retrieving the traffic information for this location. Please try a different location or try again shortly.
Advertisements
Track Severe Weather on mobile